Time;durP1;ratioP1;P1;durP2;ratioP2;P2;SDS_P1;SDS_P2;PMS_P1;PMS_P2;Temp;Humidity;BMP_temperature;BMP_pressure;BME280_temperature;BME280_humidity;BME280_pressure;Samples;Min_cycle;Max_cycle;Signal;HPM_P1;HPM_P2
2024/02/21 00:08:27;;;;;;;11.60;7.20;;;;;;;3.54;100.00;99964.45;437975;1256;140258;-58
2024/02/21 00:18:33;;;;;;;10.90;5.80;;;;;;;3.56;100.00;99958.83;451528;1253;139643;-58
2024/02/21 00:28:39;;;;;;;15.20;8.20;;;;;;;3.53;100.00;99951.83;451406;1253;140479;-58
2024/02/21 00:38:49;;;;;;;13.90;7.50;;;;;;;3.48;100.00;99947.10;451511;1252;139685;-58
2024/02/21 00:48:55;;;;;;;13.90;8.10;;;;;;;3.48;100.00;99938.09;442848;1254;140084;-58
2024/02/21 00:59:01;;;;;;;10.40;7.10;;;;;;;3.48;100.00;99938.64;436518;1257;139614;-58
2024/02/21 01:09:07;;;;;;;13.50;6.60;;;;;;;3.47;100.00;99931.05;437425;1254;139825;-58
2024/02/21 01:19:16;;;;;;;10.30;6.10;;;;;;;3.48;100.00;99924.45;451345;1253;139082;-60
2024/02/21 01:29:24;;;;;;;11.80;6.90;;;;;;;3.53;100.00;99919.82;451301;1253;139476;-59
2024/02/21 01:39:30;;;;;;;17.40;6.90;;;;;;;3.56;100.00;99907.95;451401;1253;139593;-57
2024/02/21 01:49:36;;;;;;;10.40;7.10;;;;;;;3.58;100.00;99897.84;451366;1252;140556;-57
2024/02/21 01:59:43;;;;;;;14.70;7.80;;;;;;;3.59;100.00;99888.82;451452;1252;139102;-58
2024/02/21 02:09:51;;;;;;;12.30;7.50;;;;;;;3.62;100.00;99885.24;451449;1252;140394;-60
2024/02/21 02:19:57;;;;;;;12.50;7.00;;;;;;;3.66;100.00;99883.91;451387;1253;139869;-61
2024/02/21 02:30:04;;;;;;;13.80;8.10;;;;;;;3.67;100.00;99874.20;440383;1253;139532;-62
2024/02/21 02:40:13;;;;;;;15.80;10.10;;;;;;;3.69;100.00;99863.75;437969;1257;139600;-62
2024/02/21 02:50:19;;;;;;;17.70;9.30;;;;;;;3.70;100.00;99855.91;447839;1252;139820;-50
2024/02/21 03:00:29;;;;;;;16.70;9.70;;;;;;;3.72;100.00;99849.45;451460;1252;139682;-49
2024/02/21 03:10:36;;;;;;;14.90;8.40;;;;;;;3.73;100.00;99841.80;447581;1252;139600;-52
2024/02/21 03:20:44;;;;;;;20.30;10.70;;;;;;;3.75;100.00;99840.86;451160;1253;139537;-51
2024/02/21 03:30:50;;;;;;;16.90;10.40;;;;;;;3.76;100.00;99846.73;451371;1252;139988;-62
2024/02/21 03:40:58;;;;;;;19.80;11.60;;;;;;;3.78;100.00;99836.44;451322;1252;139262;-62
2024/02/21 03:51:05;;;;;;;15.30;9.10;;;;;;;3.82;100.00;99838.06;451505;1252;140308;-48
2024/02/21 04:01:13;;;;;;;19.90;11.70;;;;;;;3.89;100.00;99834.89;451614;1252;139263;-51
2024/02/21 04:11:19;;;;;;;18.60;8.60;;;;;;;3.91;100.00;99833.43;446546;1252;139671;-52
2024/02/21 04:21:25;;;;;;;23.20;14.50;;;;;;;3.86;100.00;99822.69;437445;1257;139839;-50
2024/02/21 04:31:33;;;;;;;18.50;10.30;;;;;;;3.84;100.00;99815.30;437541;1252;140209;-58
2024/02/21 04:41:39;;;;;;;16.40;9.00;;;;;;;3.81;100.00;99812.45;451614;1252;139781;-58
2024/02/21 04:51:45;;;;;;;9.70;7.40;;;;;;;3.83;100.00;99800.80;451286;1252;139661;-59
2024/02/21 05:01:51;;;;;;;18.10;9.60;;;;;;;3.84;100.00;99791.75;451516;1252;140229;-58
2024/02/21 05:11:58;;;;;;;17.70;10.10;;;;;;;3.82;100.00;99783.50;451661;1252;139139;-49
2024/02/21 05:22:04;;;;;;;22.00;10.70;;;;;;;3.80;100.00;99791.70;451604;1252;141039;-50
2024/02/21 05:32:10;;;;;;;25.50;10.90;;;;;;;3.78;100.00;99787.96;451609;1252;140009;-61
2024/02/21 05:42:18;;;;;;;14.00;9.90;;;;;;;3.81;100.00;99786.13;451652;1252;140623;-50
2024/02/21 05:52:24;;;;;;;18.70;11.70;;;;;;;3.87;100.00;99782.81;451487;1252;139900;-52
2024/02/21 06:02:31;;;;;;;24.40;10.90;;;;;;;3.90;100.00;99782.38;443031;1252;139941;-62
2024/02/21 06:12:37;;;;;;;21.00;11.60;;;;;;;3.93;100.00;99777.61;449032;1252;139292;-62
2024/02/21 06:22:43;;;;;;;16.60;10.20;;;;;;;3.93;100.00;99773.60;438121;1254;139756;-62
2024/02/21 06:32:49;;;;;;;19.90;10.80;;;;;;;3.98;100.00;99768.27;451316;1252;139791;-62
2024/02/21 06:42:57;;;;;;;19.90;11.00;;;;;;;4.03;100.00;99768.42;447740;1252;5228550;-51
2024/02/21 06:53:04;;;;;;;20.40;13.30;;;;;;;4.10;100.00;99759.54;440612;1253;140971;-50
2024/02/21 07:03:10;;;;;;;19.50;10.50;;;;;;;4.17;100.00;99761.71;451206;1252;139683;-59
2024/02/21 07:13:17;;;;;;;17.00;10.00;;;;;;;4.23;100.00;99754.59;451587;1253;139785;-60
2024/02/21 07:23:24;;;;;;;24.90;12.90;;;;;;;4.36;100.00;99752.41;451125;1252;140426;-65
2024/02/21 07:33:30;;;;;;;16.70;11.50;;;;;;;4.50;100.00;99751.01;451312;1252;140491;-65
2024/02/21 07:43:38;;;;;;;18.00;12.60;;;;;;;4.66;100.00;99734.30;446126;1252;139959;-64
2024/02/21 07:53:45;;;;;;;18.20;12.40;;;;;;;5.05;100.00;99724.17;436339;1256;139886;-62
2024/02/21 08:03:51;;;;;;;22.00;12.60;;;;;;;5.26;100.00;99725.63;451541;1253;140749;-59
2024/02/21 08:13:57;;;;;;;18.50;9.50;;;;;;;5.49;100.00;99717.09;451694;1252;139731;-58
2024/02/21 08:24:04;;;;;;;17.20;10.50;;;;;;;5.64;100.00;99711.77;451703;1253;138969;-57
2024/02/21 08:34:13;;;;;;;11.00;9.50;;;;;;;5.60;100.00;99700.79;451322;1253;139578;-57
2024/02/21 08:44:19;;;;;;;19.80;10.40;;;;;;;5.45;100.00;99692.37;451669;1253;139586;-58
2024/02/21 08:54:25;;;;;;;13.30;7.70;;;;;;;5.49;100.00;99680.79;451724;1254;139554;-60
2024/02/21 09:04:31;;;;;;;17.40;10.30;;;;;;;5.75;100.00;99681.96;451649;1253;139072;-60
2024/02/21 09:14:40;;;;;;;14.50;9.00;;;;;;;5.93;100.00;99670.92;444587;1253;139866;-60
2024/02/21 09:24:47;;;;;;;13.30;8.00;;;;;;;6.28;100.00;99663.86;436427;1258;139063;-53
2024/02/21 09:34:54;;;;;;;7.90;6.10;;;;;;;6.79;100.00;99666.11;451661;1253;140006;-66
2024/02/21 09:45:08;;;;;;;17.40;8.80;;;;;;;6.88;100.00;99666.19;451659;1253;139726;-67
2024/02/21 09:55:15;;;;;;;13.70;6.90;;;;;;;6.74;100.00;99660.40;451697;1253;139785;-59
2024/02/21 10:05:21;;;;;;;11.70;7.40;;;;;;;6.94;100.00;99654.59;451628;1253;140561;-60
2024/02/21 10:15:28;;;;;;;16.20;7.20;;;;;;;7.07;100.00;99648.57;451679;1253;140399;-61
2024/02/21 10:25:34;;;;;;;10.60;7.40;;;;;;;7.56;100.00;99636.44;451590;1253;139535;-57
2024/02/21 10:35:40;;;;;;;15.50;6.90;;;;;;;8.00;100.00;99630.85;451742;1253;139330;-55
2024/02/21 10:45:47;;;;;;;12.00;6.30;;;;;;;8.22;100.00;99628.98;451556;1253;139201;-59
2024/02/21 10:56:01;;;;;;;17.60;7.90;;;;;;;7.99;100.00;99623.79;451735;1253;139619;-57
2024/02/21 11:06:08;;;;;;;17.30;9.40;;;;;;;7.51;100.00;99615.78;451554;1254;139088;-59
2024/02/21 11:16:22;;;;;;;9.30;5.50;;;;;;;7.25;100.00;99609.21;451523;1252;139626;-59
2024/02/21 11:26:30;;;;;;;16.60;6.70;;;;;;;7.18;100.00;99597.92;451529;1253;140217;-58
2024/02/21 11:36:37;;;;;;;10.80;5.70;;;;;;;7.24;100.00;99579.15;451630;1253;139817;-59
2024/02/21 11:46:43;;;;;;;10.80;6.30;;;;;;;7.38;100.00;99566.43;451499;1254;140043;-64
2024/02/21 11:56:52;;;;;;;12.60;5.70;;;;;;;7.23;100.00;99565.98;451553;1253;140336;-47
2024/02/21 12:06:59;;;;;;;10.20;6.40;;;;;;;7.11;100.00;99553.88;451600;1253;139134;-55
2024/02/21 12:17:05;;;;;;;11.90;5.90;;;;;;;7.02;100.00;99545.42;451574;1253;139971;-53
2024/02/21 12:27:13;;;;;;;16.20;7.00;;;;;;;6.98;100.00;99527.15;451576;1253;139694;-64
2024/02/21 12:37:20;;;;;;;9.30;5.20;;;;;;;7.14;100.00;99521.67;451722;1253;140412;-65
2024/02/21 12:47:27;;;;;;;10.00;5.70;;;;;;;7.17;100.00;99503.26;451695;1253;138995;-59
2024/02/21 12:57:35;;;;;;;10.10;7.20;;;;;;;7.30;100.00;99490.05;451668;1254;139302;-60
2024/02/21 13:07:41;;;;;;;9.70;6.00;;;;;;;7.39;100.00;99481.73;451645;1256;139478;-58
2024/02/21 13:17:47;;;;;;;12.90;7.10;;;;;;;7.32;100.00;99465.37;451762;1253;139244;-57
2024/02/21 13:27:53;;;;;;;11.60;6.30;;;;;;;7.12;100.00;99452.48;451550;1253;139215;-68
2024/02/21 13:38:00;;;;;;;7.40;5.00;;;;;;;6.94;100.00;99434.13;451568;1253;139771;-66
2024/02/21 13:48:10;;;;;;;11.50;5.20;;;;;;;6.80;100.00;99430.09;451654;1256;139154;-61
2024/02/21 13:58:17;;;;;;;9.80;5.50;;;;;;;6.69;100.00;99401.27;451614;1253;139398;-57
2024/02/21 14:08:24;;;;;;;11.50;4.50;;;;;;;6.53;100.00;99393.00;451564;1253;139728;-56
2024/02/21 14:18:30;;;;;;;10.30;6.50;;;;;;;6.41;100.00;99386.64;451690;1256;139450;-55
2024/02/21 14:28:36;;;;;;;9.80;5.60;;;;;;;6.34;100.00;99386.31;446116;1254;139511;-56
2024/02/21 14:38:43;;;;;;;8.70;4.60;;;;;;;6.25;100.00;99382.20;436639;1258;138889;-51
2024/02/21 14:48:51;;;;;;;8.20;5.30;;;;;;;6.09;100.00;99383.49;441174;1257;138984;-52
2024/02/21 14:59:00;;;;;;;10.60;5.30;;;;;;;5.95;100.00;99379.11;437002;1257;139548;-54
2024/02/21 15:09:18;;;;;;;12.70;6.80;;;;;;;5.82;100.00;99368.10;437115;1256;139331;-53
2024/02/21 15:19:25;;;;;;;8.90;7.10;;;;;;;5.74;100.00;99360.28;437925;1254;139728;-56
2024/02/21 15:29:35;;;;;;;13.80;8.50;;;;;;;5.71;100.00;99362.35;451648;1252;139925;-56
2024/02/21 15:39:43;;;;;;;13.40;8.90;;;;;;;5.69;100.00;99348.92;451575;1254;139756;-61
2024/02/21 15:49:49;;;;;;;12.40;9.20;;;;;;;5.66;100.00;99352.35;451699;1254;139276;-58
2024/02/21 15:59:55;;;;;;;19.80;11.80;;;;;;;5.67;100.00;99351.29;451641;1252;139759;-57
2024/02/21 16:10:01;;;;;;;17.40;11.50;;;;;;;5.68;100.00;99357.10;451653;1253;140709;-58
2024/02/21 16:20:15;;;;;;;20.70;13.00;;;;;;;5.69;100.00;99356.72;451578;1253;140645;-67
2024/02/21 16:30:23;;;;;;;19.10;11.60;;;;;;;5.70;100.00;99347.83;451546;1254;139425;-73
2024/02/21 16:40:28;;;;;;;14.20;8.80;;;;;;;5.65;100.00;99341.27;451436;1253;139796;-64
2024/02/21 16:50:35;;;;;;;19.90;12.30;;;;;;;5.66;100.00;99336.52;451221;1254;139680;-65
2024/02/21 17:01:00;;;;;;;23.50;16.50;;;;;;;5.63;100.00;99320.89;451518;1253;139822;-73
2024/02/21 17:11:06;;;;;;;38.50;19.30;;;;;;;5.60;100.00;99320.87;451389;1253;139515;-59
2024/02/21 17:21:12;;;;;;;21.60;13.70;;;;;;;5.58;100.00;99322.48;451393;1253;139859;-64
2024/02/21 17:31:19;;;;;;;27.00;15.90;;;;;;;5.62;100.00;99314.85;449261;1253;139999;-64
2024/02/21 17:41:24;;;;;;;17.20;11.70;;;;;;;5.64;100.00;99305.02;435806;1257;139763;-64
2024/02/21 17:51:30;;;;;;;20.70;12.60;;;;;;;5.66;100.00;99295.91;435697;1257;139411;-63
2024/02/21 18:01:36;;;;;;;25.50;15.70;;;;;;;5.70;100.00;99289.44;435678;1257;140271;-64
2024/02/21 18:11:42;;;;;;;20.30;12.70;;;;;;;5.74;100.00;99288.94;436185;1254;140410;-59
2024/02/21 18:21:50;;;;;;;20.20;13.70;;;;;;;5.73;100.00;99287.55;435862;1253;139844;-58
2024/02/21 18:31:59;;;;;;;23.90;11.70;;;;;;;5.71;100.00;99276.55;451589;1252;139911;-54
2024/02/21 18:42:07;;;;;;;25.80;16.00;;;;;;;5.73;100.00;99272.27;451407;1253;274057;-54
2024/02/21 18:52:13;;;;;;;36.40;18.10;;;;;;;5.74;100.00;99262.36;451583;1252;139701;-59
2024/02/21 19:02:19;;;;;;;20.40;13.70;;;;;;;5.71;100.00;99254.30;451565;1252;139754;-58
2024/02/21 19:12:26;;;;;;;19.50;13.30;;;;;;;5.68;100.00;99239.37;451538;1252;139827;-65
2024/02/21 19:22:32;;;;;;;18.10;12.20;;;;;;;5.62;100.00;99225.77;451586;1252;139283;-65
2024/02/21 19:32:43;;;;;;;18.20;14.70;;;;;;;5.57;100.00;99215.77;451495;1252;139517;-59
2024/02/21 19:42:49;;;;;;;20.40;13.80;;;;;;;5.58;100.00;99207.02;445748;1252;139592;-49
2024/02/21 19:52:56;;;;;;;27.50;17.00;;;;;;;5.59;100.00;99208.89;451478;1252;139691;-55
2024/02/21 20:03:03;;;;;;;22.60;14.70;;;;;;;5.56;100.00;99207.15;451615;1252;140294;-48
2024/02/21 20:13:12;;;;;;;25.10;14.30;;;;;;;5.54;100.00;99196.81;451676;1252;139380;-48
2024/02/21 20:23:19;;;;;;;;;;;;;;;5.55;100.00;99190.31;451380;1252;139876;-59
2024/02/21 20:33:25;;;;;;;16.90;12.70;;;;;;;5.58;100.00;99185.14;438190;1252;125410;-59
2024/02/21 20:43:31;;;;;;;22.10;14.50;;;;;;;5.60;100.00;99169.26;435823;1256;140160;-58
2024/02/21 20:53:38;;;;;;;18.80;14.60;;;;;;;5.60;100.00;99164.91;436110;1253;139401;-60
2024/02/21 21:03:44;;;;;;;20.00;14.30;;;;;;;5.57;100.00;99156.90;436433;1253;139247;-56
2024/02/21 21:13:50;;;;;;;19.50;12.00;;;;;;;5.54;100.00;99148.55;436151;1253;139921;-54
2024/02/21 21:23:56;;;;;;;16.90;11.50;;;;;;;5.53;100.00;99133.67;436663;1253;139271;-63
2024/02/21 21:34:03;;;;;;;16.00;12.10;;;;;;;5.55;100.00;99118.98;436258;1255;139796;-63
2024/02/21 21:44:09;;;;;;;15.10;10.40;;;;;;;5.57;100.00;99091.61;436952;1256;139242;-48
2024/02/21 21:54:18;;;;;;;24.10;14.30;;;;;;;5.61;100.00;99082.05;437874;1254;139770;-48
2024/02/21 22:04:24;;;;;;;15.30;10.40;;;;;;;5.63;100.00;99073.77;436282;1253;139655;-51
2024/02/21 22:14:32;;;;;;;14.20;9.90;;;;;;;5.64;100.00;99058.60;436331;1256;139719;-53
2024/02/21 22:24:38;;;;;;;15.70;9.90;;;;;;;5.66;100.00;99043.39;436227;1256;139034;-48
2024/02/21 22:34:44;;;;;;;15.80;10.50;;;;;;;5.67;100.00;99025.12;436246;1254;139176;-56
2024/02/21 22:44:53;;;;;;;14.10;9.10;;;;;;;5.67;100.00;99024.09;436113;1257;139658;-55
2024/02/21 22:55:01;;;;;;;13.40;10.50;;;;;;;5.58;100.00;99007.89;451649;1254;139613;-54
2024/02/21 23:05:08;;;;;;;14.80;10.50;;;;;;;5.22;100.00;98991.66;451566;1252;139626;-54
2024/02/21 23:15:14;;;;;;;22.80;10.30;;;;;;;4.81;100.00;98973.27;451601;1252;140403;-53
2024/02/21 23:25:23;;;;;;;18.30;10.80;;;;;;;4.45;100.00;98961.99;451710;1252;139392;-54
2024/02/21 23:35:30;;;;;;;13.90;9.80;;;;;;;4.16;100.00;98958.04;451709;1252;139418;-50
2024/02/21 23:45:36;;;;;;;12.80;9.70;;;;;;;3.88;100.00;98953.78;451225;1252;139844;-50
2024/02/21 23:55:42;;;;;;;15.80;8.60;;;;;;;3.64;100.00;98940.36;451012;1253;139567;-52
